McGill, Nevada
Current Conditions -  °F | °C
As of 10:53 PM on Wednesday 22 Oct 2014 (Local Time) from KELY Reporting Station
Clear Clear  
Wind Chill: 36°   Ceiling: Unl
Heat Index: 42°   Visibility: 10mi
Dew Point: 19°   Wind: 12mph
Humidity: 40%   Direction: 170°S
Pressure: 30.22"   Gusts: NA
Location:  39.4°N, 114.78°W
Report Text: KELY 230553Z AUTO 17010KT 10SM CLR 06/M07 A3022 RMK AO2 SLP187 T00561072 10189 20056 53005
Loading
Personal Weather Stations






























Interactive Weather Map New forecast layout! Learn more

10-Day Weather Forecast

Advertisements
Track Severe Weather on mobile